Time;durP1;ratioP1;P1;durP2;ratioP2;P2;SDS_P1;SDS_P2;PMS_P1;PMS_P2;Temp;Humidity;BMP_temperature;BMP_pressure;BME280_temperature;BME280_humidity;BME280_pressure;Samples;Min_cycle;Max_cycle;Signal;HPM_P1;HPM_P2
2023/04/02 00:01:51;;;;;;;7.07;3.17;;;;;;;;;;5053390;28;20057;-60
2023/04/02 00:04:21;;;;;;;8.95;3.67;;;;;;;;;;5054442;28;20037;-59
2023/04/02 00:06:48;;;;;;;11.70;3.53;;;;;;;;;;5050587;28;20428;-59
2023/04/02 00:09:14;;;;;;;6.65;3.70;;;;;;;;;;5050289;28;20107;-60
2023/04/02 00:11:44;;;;;;;8.63;3.33;;;;;;;;;;5047642;28;20351;-59
2023/04/02 00:14:21;;;;;;;5.25;2.72;;;;;;;;;;5048955;28;20090;-59
2023/04/02 00:16:47;;;;;;;6.47;3.78;;;;;;;;;;5047319;28;20093;-60
2023/04/02 00:19:24;;;;;;;5.47;3.28;;;;;;;;;;5052469;28;20039;-59
2023/04/02 00:21:51;;;;;;;6.07;3.30;;;;;;;;;;5047709;28;20378;-59
2023/04/02 00:24:19;;;;;;;6.38;3.47;;;;;;;;;;5046994;28;20108;-59
2023/04/02 00:26:47;;;;;;;6.50;3.35;;;;;;;;;;5051727;28;20033;-59
2023/04/02 00:29:14;;;;;;;6.63;2.92;;;;;;;;;;5017640;28;20415;-59
2023/04/02 00:31:45;;;;;;;9.55;4.15;;;;;;;;;;5033118;28;20069;-59
2023/04/02 00:34:32;;;;;;;8.52;3.42;;;;;;;;;;5030851;28;20075;-59
2023/04/02 00:36:58;;;;;;;5.18;2.90;;;;;;;;;;5050699;28;20033;-59
2023/04/02 00:39:26;;;;;;;5.35;3.70;;;;;;;;;;5050318;28;20115;-59
2023/04/02 00:42:16;;;;;;;5.15;3.13;;;;;;;;;;5034832;28;20111;-59
2023/04/02 00:44:44;;;;;;;5.20;3.00;;;;;;;;;;5047874;28;20037;-59
2023/04/02 00:47:25;;;;;;;5.13;2.58;;;;;;;;;;5052848;28;20427;-59
2023/04/02 00:50:05;;;;;;;4.22;2.80;;;;;;;;;;5046190;28;20069;-59
2023/04/02 00:52:32;;;;;;;7.13;2.67;;;;;;;;;;5044886;28;20103;-59
2023/04/02 00:55:09;;;;;;;6.97;3.33;;;;;;;;;;5030669;28;20351;-59
2023/04/02 00:57:36;;;;;;;5.15;2.95;;;;;;;;;;5056478;28;20076;-59
2023/04/02 01:00:20;;;;;;;7.30;2.53;;;;;;;;;;5029949;28;20123;-59
2023/04/02 01:03:05;;;;;;;8.00;2.60;;;;;;;;;;5046184;28;20052;-59
2023/04/02 01:05:34;;;;;;;4.05;2.40;;;;;;;;;;5026420;28;20305;-59
2023/04/02 01:08:07;;;;;;;8.70;3.58;;;;;;;;;;5048173;28;20215;-59
2023/04/02 01:10:44;;;;;;;4.97;2.92;;;;;;;;;;5050869;28;20036;-59
2023/04/02 01:13:30;;;;;;;7.13;2.70;;;;;;;;;;5041240;28;20175;-59
2023/04/02 01:16:10;;;;;;;9.02;3.13;;;;;;;;;;5049442;28;20033;-59
2023/04/02 01:18:50;;;;;;;9.68;3.17;;;;;;;;;;5032839;28;20093;-59
2023/04/02 01:21:29;;;;;;;5.85;2.95;;;;;;;;;;5046589;28;20102;-59
2023/04/02 01:24:10;;;;;;;5.78;2.45;;;;;;;;;;5030806;28;20064;-59
2023/04/02 01:26:45;;;;;;;4.75;2.90;;;;;;;;;;5049698;28;20119;-59
2023/04/02 01:29:13;;;;;;;6.38;2.33;;;;;;;;;;5050790;28;20505;-59
2023/04/02 01:31:40;;;;;;;8.00;3.42;;;;;;;;;;5047566;28;20462;-59
2023/04/02 01:34:08;;;;;;;6.10;2.67;;;;;;;;;;5017754;28;20041;-59
2023/04/02 01:36:53;;;;;;;4.68;2.25;;;;;;;;;;5028105;28;20087;-59
2023/04/02 01:39:25;;;;;;;5.32;2.63;;;;;;;;;;5045842;28;20033;-59
2023/04/02 01:42:14;;;;;;;4.93;2.05;;;;;;;;;;5043432;28;20053;-60
2023/04/02 01:44:47;;;;;;;5.45;2.40;;;;;;;;;;5010628;28;20134;-59
2023/04/02 01:47:13;;;;;;;;;;;;;;;;;;5049532;28;20052;-59
2023/04/02 01:49:41;;;;;;;9.13;2.85;;;;;;;;;;5048726;28;20331;-59
2023/04/02 01:52:08;;;;;;;7.15;2.40;;;;;;;;;;5047828;28;20044;-59
2023/04/02 01:54:36;;;;;;;4.05;2.10;;;;;;;;;;5047967;28;20402;-59
2023/04/02 01:57:03;;;;;;;5.70;3.10;;;;;;;;;;5045485;28;20049;-58
2023/04/02 01:59:32;;;;;;;8.95;3.33;;;;;;;;;;5049811;28;20029;-59
2023/04/02 02:01:58;;;;;;;5.25;2.60;;;;;;;;;;5051834;28;20049;-59
2023/04/02 02:04:24;;;;;;;6.05;2.25;;;;;;;;;;5049902;28;20346;-59
2023/04/02 02:06:51;;;;;;;3.72;2.58;;;;;;;;;;5048160;28;20056;-59
2023/04/02 02:09:22;;;;;;;7.07;2.45;;;;;;;;;;5030744;28;20045;-59
2023/04/02 02:11:49;;;;;;;3.55;2.20;;;;;;;;;;5046371;28;20068;-59
2023/04/02 02:14:17;;;;;;;7.28;3.08;;;;;;;;;;5053128;28;20475;-59
2023/04/02 02:16:45;;;;;;;5.00;2.38;;;;;;;;;;5030362;28;20584;-59
2023/04/02 02:19:23;;;;;;;10.48;2.65;;;;;;;;;;5044649;28;20203;-59
2023/04/02 02:22:08;;;;;;;5.30;2.10;;;;;;;;;;5042484;28;20036;-59
2023/04/02 02:24:35;;;;;;;8.93;2.30;;;;;;;;;;5031444;28;20087;-59
2023/04/02 02:27:29;;;;;;;6.63;3.00;;;;;;;;;;5026570;28;20059;-59
2023/04/02 02:29:57;;;;;;;5.75;3.30;;;;;;;;;;5011098;28;20057;-59
2023/04/02 02:32:26;;;;;;;5.63;2.25;;;;;;;;;;5050375;28;20505;-59
2023/04/02 02:34:58;;;;;;;5.93;2.45;;;;;;;;;;5045129;28;20202;-59
2023/04/02 02:37:27;;;;;;;5.40;2.35;;;;;;;;;;5053063;28;20037;-59
2023/04/02 02:39:55;;;;;;;3.55;2.10;;;;;;;;;;5052699;28;20096;-59
2023/04/02 02:42:26;;;;;;;2.90;1.58;;;;;;;;;;5042333;28;20546;-59
2023/04/02 02:44:53;;;;;;;3.80;1.80;;;;;;;;;;5048021;28;20045;-59
2023/04/02 02:47:23;;;;;;;3.75;1.73;;;;;;;;;;5047316;28;20377;-59
2023/04/02 02:49:52;;;;;;;5.32;2.05;;;;;;;;;;5049054;28;20117;-59
2023/04/02 02:52:25;;;;;;;7.88;2.05;;;;;;;;;;5048546;28;20049;-58
2023/04/02 02:54:51;;;;;;;;;;;;;;;;;;5049038;28;20049;-59
2023/04/02 02:57:32;;;;;;;3.63;2.15;;;;;;;;;;5050582;28;20313;-59
2023/04/02 02:59:59;;;;;;;4.57;2.10;;;;;;;;;;5055289;28;20447;-60
2023/04/02 03:02:26;;;;;;;4.97;1.88;;;;;;;;;;5053326;28;20037;-59
2023/04/02 03:04:53;;;;;;;3.03;1.30;;;;;;;;;;5053881;28;20036;-59
2023/04/02 03:07:24;;;;;;;8.35;1.88;;;;;;;;;;5053771;28;20372;-59
2023/04/02 03:10:05;;;;;;;4.85;1.80;;;;;;;;;;5051970;28;20113;-59
2023/04/02 03:12:41;;;;;;;4.18;1.40;;;;;;;;;;5051874;28;20059;-59
2023/04/02 03:15:16;;;;;;;2.03;1.50;;;;;;;;;;5049625;28;20056;-59
2023/04/02 03:17:46;;;;;;;4.70;1.98;;;;;;;;;;5052090;28;20040;-59
2023/04/02 03:20:13;;;;;;;3.22;1.70;;;;;;;;;;5054000;28;20051;-59
2023/04/02 03:22:55;;;;;;;6.13;2.45;;;;;;;;;;5053337;28;20287;-59
2023/04/02 03:25:30;;;;;;;7.07;2.63;;;;;;;;;;5040444;28;20554;-59
2023/04/02 03:27:59;;;;;;;2.38;1.17;;;;;;;;;;5055745;28;20052;-59
2023/04/02 03:30:35;;;;;;;4.38;1.75;;;;;;;;;;5052951;28;20139;-59
2023/04/02 03:33:17;;;;;;;2.80;1.60;;;;;;;;;;5052268;28;20041;-59
2023/04/02 03:35:46;;;;;;;7.43;2.38;;;;;;;;;;5050848;28;20557;-59
2023/04/02 03:38:32;;;;;;;4.18;2.25;;;;;;;;;;5049731;28;20041;-59
2023/04/02 03:41:01;;;;;;;4.45;1.30;;;;;;;;;;5053183;28;20142;-59
2023/04/02 03:43:30;;;;;;;2.72;1.42;;;;;;;;;;5050535;28;20418;-59
2023/04/02 03:45:59;;;;;;;3.70;1.60;;;;;;;;;;5054996;28;20036;-59
2023/04/02 03:48:33;;;;;;;6.80;2.47;;;;;;;;;;5051039;28;20041;-59
2023/04/02 03:51:02;;;;;;;7.40;2.22;;;;;;;;;;5052827;28;20041;-59
2023/04/02 03:53:31;;;;;;;3.42;1.63;;;;;;;;;;5047984;28;20033;-59
2023/04/02 03:55:57;;;;;;;8.25;2.22;;;;;;;;;;5040600;28;20053;-59
2023/04/02 03:58:34;;;;;;;7.95;3.55;;;;;;;;;;5047360;28;20398;-58
2023/04/02 04:01:06;;;;;;;6.95;2.20;;;;;;;;;;5032299;28;20406;-59
2023/04/02 04:03:41;;;;;;;6.97;2.05;;;;;;;;;;5037202;28;20121;-59
2023/04/02 04:06:07;;;;;;;8.52;1.75;;;;;;;;;;5054519;28;20380;-59
2023/04/02 04:08:49;;;;;;;6.93;1.88;;;;;;;;;;5050880;28;20114;-59
2023/04/02 04:11:16;;;;;;;6.82;1.92;;;;;;;;;;5031633;28;20387;-59
2023/04/02 04:13:46;;;;;;;9.98;2.38;;;;;;;;;;5054052;28;20356;-59
2023/04/02 04:16:18;;;;;;;7.35;2.17;;;;;;;;;;5047674;28;20190;-59
2023/04/02 04:18:50;;;;;;;5.70;2.10;;;;;;;;;;5048881;28;20045;-58
2023/04/02 04:21:29;;;;;;;12.80;2.60;;;;;;;;;;5055423;28;20491;-58
2023/04/02 04:23:57;;;;;;;3.25;1.77;;;;;;;;;;5047797;28;20033;-59
2023/04/02 04:26:33;;;;;;;5.22;1.80;;;;;;;;;;5049685;28;20037;-59
2023/04/02 04:29:17;;;;;;;8.30;2.28;;;;;;;;;;5048401;28;20325;-58
2023/04/02 04:31:45;;;;;;;4.95;1.98;;;;;;;;;;5047181;28;20273;-59
2023/04/02 04:34:28;;;;;;;5.38;2.13;;;;;;;;;;5032591;28;20191;-59
2023/04/02 04:37:06;;;;;;;6.13;2.10;;;;;;;;;;5049625;28;20049;-59
2023/04/02 04:39:38;;;;;;;2.70;1.10;;;;;;;;;;5045034;28;20044;-59
2023/04/02 04:42:05;;;;;;;9.55;2.33;;;;;;;;;;5049806;28;20036;-59
2023/04/02 04:44:45;;;;;;;9.10;2.33;;;;;;;;;;5023512;28;20077;-59
2023/04/02 04:47:20;;;;;;;5.93;1.63;;;;;;;;;;5045553;28;20044;-59
2023/04/02 04:49:53;;;;;;;5.07;1.88;;;;;;;;;;5030755;28;20053;-59
2023/04/02 04:52:23;;;;;;;5.40;2.17;;;;;;;;;;5045810;28;20041;-59
2023/04/02 04:54:49;;;;;;;6.95;1.83;;;;;;;;;;5048048;28;20383;-59
2023/04/02 04:57:22;;;;;;;4.45;1.35;;;;;;;;;;5036325;28;20229;-58
2023/04/02 04:59:48;;;;;;;;;;;;;;;;;;5048588;28;20082;-59
2023/04/02 05:02:17;;;;;;;5.32;1.63;;;;;;;;;;5048899;28;19924;-59
2023/04/02 05:04:48;;;;;;;5.13;1.55;;;;;;;;;;5050625;28;20441;-59
2023/04/02 05:07:18;;;;;;;3.55;1.60;;;;;;;;;;5057071;28;20033;-59
2023/04/02 05:09:53;;;;;;;6.68;2.08;;;;;;;;;;5047553;28;20041;-59
2023/04/02 05:12:41;;;;;;;4.15;1.80;;;;;;;;;;5048060;28;20044;-60
2023/04/02 05:15:15;;;;;;;4.40;1.98;;;;;;;;;;5044276;28;20045;-59
2023/04/02 05:17:53;;;;;;;3.78;1.83;;;;;;;;;;5031325;28;20106;-59
2023/04/02 05:20:26;;;;;;;4.05;1.90;;;;;;;;;;5044844;28;20047;-59
2023/04/02 05:22:54;;;;;;;6.75;2.83;;;;;;;;;;5052908;28;20120;-59
2023/04/02 05:25:23;;;;;;;4.57;2.05;;;;;;;;;;5037745;28;20068;-59
2023/04/02 05:28:02;;;;;;;4.30;1.65;;;;;;;;;;5046505;28;20040;-59
2023/04/02 05:30:28;;;;;;;4.95;1.63;;;;;;;;;;5043164;28;20442;-59
2023/04/02 05:32:57;;;;;;;6.78;1.77;;;;;;;;;;5045713;28;20516;-59
2023/04/02 05:35:30;;;;;;;3.72;2.05;;;;;;;;;;5043037;28;20037;-58
2023/04/02 05:37:57;;;;;;;3.83;1.95;;;;;;;;;;5022197;28;20049;-58
2023/04/02 05:40:27;;;;;;;5.65;1.98;;;;;;;;;;5023938;28;20045;-58
2023/04/02 05:42:54;;;;;;;4.18;1.48;;;;;;;;;;5045165;28;20120;-59
2023/04/02 05:45:24;;;;;;;2.95;2.08;;;;;;;;;;5025812;28;20131;-58
2023/04/02 05:47:53;;;;;;;3.17;1.67;;;;;;;;;;5030559;28;20057;-59
2023/04/02 05:50:25;;;;;;;6.57;2.05;;;;;;;;;;5048725;28;20052;-59
2023/04/02 05:53:00;;;;;;;4.30;1.70;;;;;;;;;;5051476;28;20487;-59
2023/04/02 05:55:33;;;;;;;4.55;2.20;;;;;;;;;;5049668;28;20040;-59
2023/04/02 05:58:20;;;;;;;7.15;1.48;;;;;;;;;;5041092;28;20116;-58
2023/04/02 06:01:02;;;;;;;10.93;1.80;;;;;;;;;;5051405;28;20531;-58
2023/04/02 06:03:28;;;;;;;4.25;1.67;;;;;;;;;;5049467;28;20239;-58
2023/04/02 06:05:57;;;;;;;10.20;1.77;;;;;;;;;;5047477;28;20150;-58
2023/04/02 06:08:31;;;;;;;3.60;1.67;;;;;;;;;;5044598;28;20138;-58
2023/04/02 06:11:17;;;;;;;5.63;1.80;;;;;;;;;;5043973;28;20399;-59
2023/04/02 06:13:43;;;;;;;6.10;1.88;;;;;;;;;;5048017;28;20439;-58
2023/04/02 06:16:12;;;;;;;5.32;1.90;;;;;;;;;;5044806;28;20037;-59
2023/04/02 06:18:39;;;;;;;4.70;2.10;;;;;;;;;;5047853;28;20049;-58
2023/04/02 06:21:06;;;;;;;4.88;1.67;;;;;;;;;;5045632;28;20083;-58
2023/04/02 06:23:41;;;;;;;5.38;1.92;;;;;;;;;;5041017;28;20047;-58
2023/04/02 06:26:16;;;;;;;3.42;1.80;;;;;;;;;;5044044;28;20118;-58
2023/04/02 06:28:52;;;;;;;4.82;2.28;;;;;;;;;;5030457;28;20114;-58
2023/04/02 06:31:30;;;;;;;3.83;1.55;;;;;;;;;;5048644;28;20445;-58
2023/04/02 06:33:56;;;;;;;4.32;1.58;;;;;;;;;;5030156;28;20037;-58
2023/04/02 06:36:23;;;;;;;4.53;1.80;;;;;;;;;;5054771;28;20090;-58
2023/04/02 06:38:50;;;;;;;4.28;1.65;;;;;;;;;;5049674;28;20041;-59
2023/04/02 06:41:21;;;;;;;3.83;1.48;;;;;;;;;;5033707;28;20071;-59
2023/04/02 06:43:59;;;;;;;5.80;1.48;;;;;;;;;;5042144;28;20045;-59
2023/04/02 06:46:35;;;;;;;2.70;1.67;;;;;;;;;;5037976;28;20051;-58
2023/04/02 06:49:06;;;;;;;7.55;1.77;;;;;;;;;;5048038;28;20338;-58
2023/04/02 06:51:35;;;;;;;6.40;1.60;;;;;;;;;;5048900;28;20049;-58
2023/04/02 06:54:01;;;;;;;3.90;1.30;;;;;;;;;;5049747;28;20041;-58
2023/04/02 06:56:40;;;;;;;5.50;1.63;;;;;;;;;;5048605;28;20025;-58
2023/04/02 06:59:06;;;;;;;4.57;1.98;;;;;;;;;;5052757;28;20389;-59
2023/04/02 07:01:39;;;;;;;3.63;2.25;;;;;;;;;;5047085;28;20053;-58
2023/04/02 07:04:05;;;;;;;2.05;1.35;;;;;;;;;;5045542;28;20152;-59
2023/04/02 07:06:31;;;;;;;4.53;1.52;;;;;;;;;;5055687;28;20048;-58
2023/04/02 07:08:58;;;;;;;4.88;1.70;;;;;;;;;;5033483;28;20036;-58
2023/04/02 07:11:25;;;;;;;3.25;1.42;;;;;;;;;;5030704;28;20117;-58
2023/04/02 07:13:51;;;;;;;2.83;1.45;;;;;;;;;;5025629;28;20308;-58
2023/04/02 07:16:19;;;;;;;9.00;1.45;;;;;;;;;;5055444;28;20033;-58
2023/04/02 07:18:45;;;;;;;5.47;1.55;;;;;;;;;;5045338;28;20045;-58
2023/04/02 07:21:11;;;;;;;5.72;1.77;;;;;;;;;;5032323;28;20517;-58
2023/04/02 07:23:37;;;;;;;4.22;2.17;;;;;;;;;;5055015;28;20128;-58
2023/04/02 07:26:04;;;;;;;6.20;1.70;;;;;;;;;;5052692;28;20561;-59
2023/04/02 07:28:30;;;;;;;4.43;1.70;;;;;;;;;;5046859;28;20033;-59
2023/04/02 07:30:56;;;;;;;2.47;1.15;;;;;;;;;;5029020;28;20043;-59
2023/04/02 07:33:24;;;;;;;2.75;1.08;;;;;;;;;;5043745;28;20706;-58
2023/04/02 07:35:50;;;;;;;2.22;1.23;;;;;;;;;;5047298;28;21530;-58
2023/04/02 07:38:16;;;;;;;3.80;1.40;;;;;;;;;;5044809;28;20040;-58
2023/04/02 07:40:42;;;;;;;5.18;1.30;;;;;;;;;;5044092;28;20047;-58
2023/04/02 07:43:09;;;;;;;2.83;1.40;;;;;;;;;;5051627;28;20517;-58
2023/04/02 07:45:35;;;;;;;2.95;1.33;;;;;;;;;;5048417;28;20110;-58
2023/04/02 07:48:08;;;;;;;4.32;1.45;;;;;;;;;;5047091;28;20037;-58
2023/04/02 07:50:35;;;;;;;7.13;1.92;;;;;;;;;;5044275;28;20055;-59
2023/04/02 07:53:02;;;;;;;3.58;1.48;;;;;;;;;;5043482;28;20032;-59
2023/04/02 07:55:28;;;;;;;3.85;1.67;;;;;;;;;;5046474;28;20075;-59
2023/04/02 07:57:55;;;;;;;5.72;1.85;;;;;;;;;;5028029;28;20077;-59
2023/04/02 08:00:22;;;;;;;3.53;1.30;;;;;;;;;;5055028;28;20044;-59
2023/04/02 08:02:48;;;;;;;3.20;1.55;;;;;;;;;;5049600;28;20044;-58
2023/04/02 08:05:14;;;;;;;5.13;1.80;;;;;;;;;;5051563;28;20033;-59
2023/04/02 08:07:41;;;;;;;2.42;1.23;;;;;;;;;;5049357;28;20094;-58
2023/04/02 08:10:09;;;;;;;3.42;1.55;;;;;;;;;;5048579;28;20056;-58
2023/04/02 08:12:35;;;;;;;4.55;1.83;;;;;;;;;;5037084;28;20045;-58
2023/04/02 08:15:02;;;;;;;4.38;1.45;;;;;;;;;;5046608;28;20033;-58
2023/04/02 08:17:30;;;;;;;6.65;1.92;;;;;;;;;;5045975;28;20048;-58
2023/04/02 08:19:59;;;;;;;7.05;2.03;;;;;;;;;;5042051;28;20124;-58
2023/04/02 08:22:28;;;;;;;8.20;2.00;;;;;;;;;;5048524;28;20429;-59
2023/04/02 08:24:55;;;;;;;5.88;1.98;;;;;;;;;;5043951;28;20060;-59
2023/04/02 08:27:22;;;;;;;3.53;1.23;;;;;;;;;;5047367;28;20040;-59
2023/04/02 08:29:48;;;;;;;2.80;1.35;;;;;;;;;;5049390;28;20033;-59
2023/04/02 08:32:15;;;;;;;4.88;2.38;;;;;;;;;;5044008;28;20032;-59
2023/04/02 08:34:41;;;;;;;6.45;1.83;;;;;;;;;;5045628;28;20044;-59
2023/04/02 08:37:09;;;;;;;3.33;1.05;;;;;;;;;;5045830;28;20051;-58
2023/04/02 08:39:35;;;;;;;4.70;1.85;;;;;;;;;;5053224;28;20043;-58
2023/04/02 08:42:16;;;;;;;3.20;1.50;;;;;;;;;;5046093;28;20543;-59
2023/04/02 08:44:51;;;;;;;4.07;1.88;;;;;;;;;;5050555;28;20441;-59
2023/04/02 08:47:19;;;;;;;7.57;1.70;;;;;;;;;;5035950;28;20383;-59
2023/04/02 08:49:51;;;;;;;8.50;1.60;;;;;;;;;;5048921;28;20128;-59
2023/04/02 08:52:22;;;;;;;4.10;1.33;;;;;;;;;;5046344;28;20116;-59
2023/04/02 08:54:49;;;;;;;5.15;1.70;;;;;;;;;;5046642;28;20834;-59
2023/04/02 08:57:37;;;;;;;4.55;1.60;;;;;;;;;;5047644;28;20087;-59
2023/04/02 09:00:13;;;;;;;4.68;1.35;;;;;;;;;;5049825;28;20063;-59
2023/04/02 09:02:42;;;;;;;2.85;1.63;;;;;;;;;;5047648;28;20048;-59
2023/04/02 09:05:16;;;;;;;2.03;1.08;;;;;;;;;;5029999;28;20033;-59
2023/04/02 09:07:42;;;;;;;7.63;2.08;;;;;;;;;;5029852;28;20083;-59
2023/04/02 09:10:15;;;;;;;5.90;1.23;;;;;;;;;;5051388;28;20048;-59
2023/04/02 09:12:42;;;;;;;3.47;1.20;;;;;;;;;;5047658;28;20044;-59
2023/04/02 09:15:35;;;;;;;4.93;1.55;;;;;;;;;;5042745;28;20052;-59
2023/04/02 09:18:19;;;;;;;3.17;1.27;;;;;;;;;;5048727;28;20076;-59
2023/04/02 09:20:47;;;;;;;2.78;1.33;;;;;;;;;;5024837;28;20128;-59
2023/04/02 09:23:31;;;;;;;3.55;1.77;;;;;;;;;;5046423;28;20041;-58
2023/04/02 09:25:57;;;;;;;3.65;1.83;;;;;;;;;;5041132;28;20498;-58
2023/04/02 09:28:24;;;;;;;5.28;1.67;;;;;;;;;;5031870;28;20092;-58
2023/04/02 09:30:50;;;;;;;4.60;1.25;;;;;;;;;;5039736;28;20270;-58
2023/04/02 09:33:18;;;;;;;7.45;1.45;;;;;;;;;;5048324;28;20423;-59
2023/04/02 09:35:55;;;;;;;5.32;1.58;;;;;;;;;;5048287;28;20347;-59
2023/04/02 09:38:22;;;;;;;3.75;1.90;;;;;;;;;;5047359;28;20080;-58
2023/04/02 09:40:55;;;;;;;6.63;1.60;;;;;;;;;;5013023;28;20498;-58
2023/04/02 09:43:21;;;;;;;3.78;1.38;;;;;;;;;;5047396;28;20487;-59
2023/04/02 09:45:58;;;;;;;5.05;1.85;;;;;;;;;;5047635;28;20045;-58
2023/04/02 09:48:29;;;;;;;4.47;1.52;;;;;;;;;;5046468;28;20033;-58
2023/04/02 09:51:07;;;;;;;4.00;1.20;;;;;;;;;;5051810;28;20052;-58
2023/04/02 09:53:34;;;;;;;2.55;1.17;;;;;;;;;;5032720;28;20045;-58
2023/04/02 09:56:07;;;;;;;2.45;1.17;;;;;;;;;;5044119;28;20124;-58
2023/04/02 09:58:33;;;;;;;6.25;1.17;;;;;;;;;;5046238;28;20463;-59
2023/04/02 10:01:00;;;;;;;4.03;1.40;;;;;;;;;;5049832;28;20482;-58
2023/04/02 10:03:27;;;;;;;2.08;1.00;;;;;;;;;;5047825;28;20037;-59
2023/04/02 10:06:07;;;;;;;2.30;1.02;;;;;;;;;;5048058;28;20386;-59
2023/04/02 10:08:34;;;;;;;4.43;1.20;;;;;;;;;;5047263;28;20045;-58
2023/04/02 10:11:01;;;;;;;2.00;0.95;;;;;;;;;;5033397;28;20041;-58
2023/04/02 10:13:29;;;;;;;3.38;1.33;;;;;;;;;;5057901;28;20131;-58
2023/04/02 10:16:10;;;;;;;3.10;1.00;;;;;;;;;;5054510;28;20124;-59
2023/04/02 10:18:40;;;;;;;2.92;1.25;;;;;;;;;;5053606;28;20066;-59
2023/04/02 10:21:06;;;;;;;2.08;1.38;;;;;;;;;;5056206;28;20048;-58
2023/04/02 10:23:35;;;;;;;8.32;1.55;;;;;;;;;;5049994;28;20060;-59
2023/04/02 10:26:14;;;;;;;2.15;1.00;;;;;;;;;;5048123;28;20079;-59
2023/04/02 10:28:43;;;;;;;6.35;1.50;;;;;;;;;;5050400;28;20449;-58
2023/04/02 10:31:16;;;;;;;2.38;0.95;;;;;;;;;;5058296;28;20049;-58
2023/04/02 10:33:45;;;;;;;2.55;1.33;;;;;;;;;;5051033;28;20085;-58
2023/04/02 10:36:15;;;;;;;1.70;0.88;;;;;;;;;;5042546;28;20041;-59
2023/04/02 10:38:44;;;;;;;6.22;1.70;;;;;;;;;;5047783;28;20033;-59
2023/04/02 10:41:31;;;;;;;8.82;1.52;;;;;;;;;;5058523;28;20047;-59
2023/04/02 10:44:03;;;;;;;2.08;1.02;;;;;;;;;;5054433;28;20171;-59
2023/04/02 10:46:29;;;;;;;2.97;1.00;;;;;;;;;;5044942;28;20036;-59
2023/04/02 10:49:11;;;;;;;4.60;1.20;;;;;;;;;;5060782;28;20041;-59
2023/04/02 10:51:56;;;;;;;5.65;1.05;;;;;;;;;;5047726;28;20048;-59
2023/04/02 10:54:22;;;;;;;2.92;1.17;;;;;;;;;;5046380;28;20128;-58
2023/04/02 10:56:51;;;;;;;2.88;1.20;;;;;;;;;;5048084;28;20105;-59
2023/04/02 10:59:24;;;;;;;1.67;1.40;;;;;;;;;;5051991;28;20044;-59
2023/04/02 11:01:51;;;;;;;4.05;1.20;;;;;;;;;;5048182;28;20586;-59
2023/04/02 11:04:19;;;;;;;3.05;1.30;;;;;;;;;;5048305;28;20036;-59
2023/04/02 11:06:48;;;;;;;4.18;1.17;;;;;;;;;;5055372;28;20437;-59
2023/04/02 11:09:20;;;;;;;2.47;1.25;;;;;;;;;;5032110;28;20045;-58
2023/04/02 11:11:48;;;;;;;2.13;1.30;;;;;;;;;;5050633;28;20418;-58
2023/04/02 11:14:16;;;;;;;3.75;1.05;;;;;;;;;;5049468;28;20041;-59
2023/04/02 11:16:43;;;;;;;3.85;0.98;;;;;;;;;;5058223;28;20373;-59
2023/04/02 11:19:09;;;;;;;3.75;1.42;;;;;;;;;;5027511;28;20056;-59
2023/04/02 11:21:40;;;;;;;1.25;0.90;;;;;;;;;;5031318;28;20056;-59
2023/04/02 11:24:22;;;;;;;2.50;1.33;;;;;;;;;;5036914;28;20041;-59
2023/04/02 11:26:48;;;;;;;3.65;1.10;;;;;;;;;;5045315;28;20041;-59
2023/04/02 11:29:27;;;;;;;4.18;1.02;;;;;;;;;;5047404;28;20032;-59
2023/04/02 11:32:12;;;;;;;2.58;0.98;;;;;;;;;;5045913;28;20073;-58
2023/04/02 11:34:41;;;;;;;1.15;0.90;;;;;;;;;;5050078;28;20037;-59
2023/04/02 11:37:09;;;;;;;3.53;1.05;;;;;;;;;;5049167;28;20120;-59
2023/04/02 11:39:55;;;;;;;3.33;0.88;;;;;;;;;;5029425;28;20222;-59
2023/04/02 11:42:26;;;;;;;3.83;1.20;;;;;;;;;;5046010;28;20092;-59
2023/04/02 11:44:53;;;;;;;1.85;0.93;;;;;;;;;;5048369;28;20132;-59
2023/04/02 11:47:23;;;;;;;2.50;1.05;;;;;;;;;;5042781;28;20033;-59
2023/04/02 11:50:00;;;;;;;2.72;1.13;;;;;;;;;;5044280;28;20063;-59
2023/04/02 11:52:34;;;;;;;5.35;1.10;;;;;;;;;;5044407;28;20053;-59
2023/04/02 11:55:02;;;;;;;2.50;1.20;;;;;;;;;;5031957;28;20033;-59
2023/04/02 11:57:45;;;;;;;4.40;1.58;;;;;;;;;;5047883;28;20491;-59
2023/04/02 12:00:23;;;;;;;4.35;1.33;;;;;;;;;;5044381;28;20117;-59
2023/04/02 12:03:03;;;;;;;6.38;1.50;;;;;;;;;;5048476;28;20037;-58
2023/04/02 12:05:49;;;;;;;5.35;1.42;;;;;;;;;;5049143;28;20445;-59
2023/04/02 12:08:21;;;;;;;5.03;1.33;;;;;;;;;;5049901;28;20406;-59
2023/04/02 12:10:50;;;;;;;6.50;1.00;;;;;;;;;;5054196;28;20057;-59
2023/04/02 12:13:21;;;;;;;2.03;1.15;;;;;;;;;;5052552;28;20459;-59
2023/04/02 12:15:48;;;;;;;2.53;1.10;;;;;;;;;;5046977;28;20037;-59
2023/04/02 12:18:18;;;;;;;6.30;1.10;;;8.90;99.90;;;;;;5047323;28;20059;-59
2023/04/02 12:20:52;;;;;;;2.08;0.95;;;;;;;;;;5053886;28;20181;-59
2023/04/02 12:23:20;;;;;;;7.50;1.50;;;;;;;;;;5043987;28;20047;-59
2023/04/02 12:25:53;;;;;;;3.50;1.27;;;;;;;;;;5051397;28;20064;-59
2023/04/02 12:28:19;;;;;;;;;;;;;;;;;;5047742;28;20041;-59
2023/04/02 12:30:46;;;;;;;2.10;1.00;;;;;;;;;;5047799;28;19971;-59
2023/04/02 12:33:19;;;;;;;3.10;1.08;;;;;;;;;;5048893;28;20044;-59
2023/04/02 12:35:46;;;;;;;4.75;1.13;;;;;;;;;;5047265;28;20041;-59
2023/04/02 12:38:28;;;;;;;2.28;1.13;;;;;;;;;;5050187;28;20467;-60
2023/04/02 12:40:59;;;;;;;3.55;0.90;;;;;;;;;;5031732;28;20447;-59
2023/04/02 12:43:29;;;;;;;5.47;1.10;;;;;;;;;;5048144;28;20524;-59
2023/04/02 12:45:57;;;;;;;4.88;1.20;;;;;;;;;;5049547;28;20115;-59
2023/04/02 12:48:24;;;;;;;3.53;0.90;;;;;;;;;;5048791;28;20048;-59
2023/04/02 12:50:51;;;;;;;2.95;1.30;;;;;;;;;;5028763;28;20057;-59
2023/04/02 12:53:29;;;;;;;3.42;1.33;;;8.40;99.90;;;;;;5047706;28;20501;-59
2023/04/02 12:55:55;;;;;;;4.80;1.30;;;8.80;99.90;;;;;;5032008;28;20060;-59
2023/04/02 12:58:31;;;;;;;3.30;1.23;;;8.80;99.90;;;;;;5046440;28;20045;-59
2023/04/02 13:01:19;;;;;;;3.92;1.30;;;8.90;99.90;;;;;;5037410;28;20134;-59
2023/04/02 13:04:11;;;;;;;2.80;1.13;;;8.90;99.90;;;;;;5050570;28;20516;-59
2023/04/02 13:06:39;;;;;;;2.58;1.08;;;8.90;99.90;;;;;;5034915;28;20048;-59
2023/04/02 13:09:24;;;;;;;3.30;1.20;;;8.90;99.90;;;;;;5049149;28;20053;-59
2023/04/02 13:11:50;;;;;;;2.70;1.45;;;8.90;99.90;;;;;;5046321;28;20552;-59
2023/04/02 13:14:20;;;;;;;4.45;1.30;;;8.90;99.90;;;;;;5050378;28;20044;-59
2023/04/02 13:16:46;;;;;;;5.30;1.35;;;8.90;99.90;;;;;;5054142;28;20056;-59
2023/04/02 13:19:30;;;;;;;2.13;0.98;;;8.90;99.90;;;;;;5032491;28;20036;-59
2023/04/02 13:21:58;;;;;;;4.40;1.35;;;8.90;99.90;;;;;;5049474;28;20083;-59
2023/04/02 13:24:26;;;;;;;2.58;1.20;;;8.90;99.90;;;;;;5047934;28;20114;-59
2023/04/02 13:27:02;;;;;;;5.00;1.20;;;8.80;99.90;;;;;;5050457;28;20037;-59
2023/04/02 13:29:29;;;;;;;5.00;1.35;;;8.80;99.90;;;;;;5053420;28;20495;-59
2023/04/02 13:32:04;;;;;;;1.70;0.95;;;8.90;99.90;;;;;;5050541;28;20037;-59
2023/04/02 13:34:30;;;;;;;2.67;0.85;;;8.90;99.90;;;;;;5031513;28;20029;-59
2023/04/02 13:36:56;;;;;;;2.25;0.90;;;8.90;99.90;;;;;;5032701;28;20040;-59
2023/04/02 13:39:22;;;;;;;3.92;1.15;;;8.90;99.90;;;;;;5050624;28;20111;-59
2023/04/02 13:41:51;;;;;;;2.10;1.23;;;8.90;99.90;;;;;;5045971;28;20080;-58
2023/04/02 13:44:23;;;;;;;6.05;1.33;;;8.90;99.90;;;;;;5036224;28;20098;-59
2023/04/02 13:46:50;;;;;;;3.58;1.58;;;8.90;99.90;;;;;;5052779;28;20402;-59
2023/04/02 13:49:17;;;;;;;3.15;0.98;;;8.90;99.90;;;;;;5015122;28;20115;-59
2023/04/02 13:52:15;;;;;;;3.47;1.73;;;8.90;99.90;;;;;;5026388;28;20045;-59
2023/04/02 13:54:52;;;;;;;3.83;1.08;;;8.80;99.90;;;;;;5013027;28;20048;-59
2023/04/02 13:57:18;;;;;;;2.15;1.48;;;8.80;99.90;;;;;;5033717;28;20040;-60
2023/04/02 13:59:44;;;;;;;2.17;0.90;;;8.80;99.90;;;;;;5028528;28;20048;-60
2023/04/02 14:02:16;;;;;;;3.38;1.30;;;8.80;99.90;;;;;;4998803;28;20048;-60
2023/04/02 14:04:47;;;;;;;3.88;1.20;;;8.80;99.90;;;;;;5031479;28;20033;-60
2023/04/02 14:07:44;;;;;;;2.95;1.20;;;8.80;99.90;;;;;;5025045;28;20055;-60
2023/04/02 14:10:25;;;;;;;2.60;1.17;;;8.90;99.90;;;;;;5032130;28;20037;-60
2023/04/02 14:13:19;;;;;;;3.05;1.23;;;8.90;99.90;;;;;;5033406;28;20033;-60
2023/04/02 14:16:11;;;;;;;3.58;1.05;;;9.00;99.90;;;;;;5027078;28;20037;-60
2023/04/02 14:19:16;;;;;;;3.25;1.38;;;9.10;99.90;;;;;;5026414;28;20500;-60
2023/04/02 14:21:44;;;;;;;2.70;1.10;;;9.10;99.90;;;;;;4973631;28;20057;-60
2023/04/02 14:24:32;;;;;;;4.63;1.42;;;9.10;99.90;;;;;;5031644;28;20072;-60
2023/04/02 14:27:16;;;;;;;3.55;1.48;;;9.00;99.90;;;;;;5029646;28;20073;-60
2023/04/02 14:29:57;;;;;;;4.10;1.88;;;9.00;99.90;;;;;;5028778;28;20124;-60
2023/04/02 14:32:38;;;;;;;3.00;1.20;;;9.00;99.90;;;;;;5034874;28;20025;-60
2023/04/02 14:35:36;;;;;;;1.77;1.10;;;9.10;99.90;;;;;;5031640;28;20124;-60
2023/04/02 14:38:30;;;;;;;2.72;1.25;;;9.10;99.90;;;;;;5014707;28;20057;-61
2023/04/02 14:41:08;;;;;;;4.45;1.55;;;9.20;99.90;;;;;;5037745;28;20439;-60
2023/04/02 14:43:47;;;;;;;2.85;1.60;;;9.20;99.90;;;;;;5030161;28;20045;-61
2023/04/02 14:46:13;;;;;;;4.22;1.83;;;9.20;99.90;;;;;;5027727;28;20568;-60
2023/04/02 14:48:56;;;;;;;2.30;1.17;;;9.10;99.90;;;;;;5023827;28;20045;-60
2023/04/02 14:51:39;;;;;;;1.98;0.98;;;9.10;99.90;;;;;;5024903;28;20117;-60
2023/04/02 14:54:29;;;;;;;4.95;1.40;;;9.10;99.90;;;;;;5032878;28;20041;-60
2023/04/02 14:57:17;;;;;;;4.47;1.42;;;9.10;99.90;;;;;;5031964;28;20037;-60
2023/04/02 14:59:52;;;;;;;5.13;1.52;;;9.20;99.90;;;;;;5029641;28;20208;-60